sensor_id;sensor_type;location;lat;lon;timestamp;temperature;humidity
33903;DHT22;20194;50.950;5.346;2023-11-22T00:00:42;8.50;92.70
33903;DHT22;20194;50.950;5.346;2023-11-22T00:03:08;8.40;93.00
33903;DHT22;20194;50.950;5.346;2023-11-22T00:05:34;8.40;93.30
33903;DHT22;20194;50.950;5.346;2023-11-22T00:08:00;8.30;92.90
33903;DHT22;20194;50.950;5.346;2023-11-22T00:10:25;8.20;93.90
33903;DHT22;20194;50.950;5.346;2023-11-22T00:12:51;8.10;94.40
33903;DHT22;20194;50.950;5.346;2023-11-22T00:15:17;8.10;94.20
33903;DHT22;20194;50.950;5.346;2023-11-22T00:17:47;8.10;93.90
33903;DHT22;20194;50.950;5.346;2023-11-22T00:20:13;8.20;94.00
33903;DHT22;20194;50.950;5.346;2023-11-22T00:22:39;8.20;93.50
33903;DHT22;20194;50.950;5.346;2023-11-22T00:25:06;8.30;93.30
33903;DHT22;20194;50.950;5.346;2023-11-22T00:27:31;8.40;92.60
33903;DHT22;20194;50.950;5.346;2023-11-22T00:29:58;8.30;92.70
33903;DHT22;20194;50.950;5.346;2023-11-22T00:32:24;8.30;92.60
33903;DHT22;20194;50.950;5.346;2023-11-22T00:34:51;8.40;92.50
33903;DHT22;20194;50.950;5.346;2023-11-22T00:37:17;8.30;92.80
33903;DHT22;20194;50.950;5.346;2023-11-22T00:39:42;8.20;92.40
33903;DHT22;20194;50.950;5.346;2023-11-22T00:42:09;8.20;92.80
33903;DHT22;20194;50.950;5.346;2023-11-22T00:44:34;8.30;92.20
33903;DHT22;20194;50.950;5.346;2023-11-22T00:47:02;8.20;92.20
33903;DHT22;20194;50.950;5.346;2023-11-22T00:49:27;8.00;92.10
33903;DHT22;20194;50.950;5.346;2023-11-22T00:51:53;7.90;92.80
33903;DHT22;20194;50.950;5.346;2023-11-22T00:54:19;7.80;93.90
33903;DHT22;20194;50.950;5.346;2023-11-22T00:56:46;7.90;93.70
33903;DHT22;20194;50.950;5.346;2023-11-22T00:59:12;7.90;93.50
33903;DHT22;20194;50.950;5.346;2023-11-22T01:01:38;8.00;93.20
33903;DHT22;20194;50.950;5.346;2023-11-22T01:04:03;7.90;92.70
33903;DHT22;20194;50.950;5.346;2023-11-22T01:06:31;7.90;92.80
33903;DHT22;20194;50.950;5.346;2023-11-22T01:08:57;8.00;92.60
33903;DHT22;20194;50.950;5.346;2023-11-22T01:11:23;8.00;91.70
33903;DHT22;20194;50.950;5.346;2023-11-22T01:13:49;8.00;92.10
33903;DHT22;20194;50.950;5.346;2023-11-22T01:16:14;8.00;91.80
33903;DHT22;20194;50.950;5.346;2023-11-22T01:18:41;7.80;92.10
33903;DHT22;20194;50.950;5.346;2023-11-22T01:21:07;7.90;92.50
33903;DHT22;20194;50.950;5.346;2023-11-22T01:23:33;7.60;92.50
33903;DHT22;20194;50.950;5.346;2023-11-22T01:25:59;7.50;93.80
33903;DHT22;20194;50.950;5.346;2023-11-22T01:28:26;7.50;94.70
33903;DHT22;20194;50.950;5.346;2023-11-22T01:30:55;7.60;94.60
33903;DHT22;20194;50.950;5.346;2023-11-22T01:33:24;7.60;95.00
33903;DHT22;20194;50.950;5.346;2023-11-22T01:35:49;7.60;95.00
33903;DHT22;20194;50.950;5.346;2023-11-22T01:38:15;7.70;95.00
33903;DHT22;20194;50.950;5.346;2023-11-22T01:40:47;7.70;95.30
33903;DHT22;20194;50.950;5.346;2023-11-22T01:43:14;7.70;95.10
33903;DHT22;20194;50.950;5.346;2023-11-22T01:45:41;7.60;96.10
33903;DHT22;20194;50.950;5.346;2023-11-22T01:48:07;7.70;96.20
33903;DHT22;20194;50.950;5.346;2023-11-22T01:50:37;7.80;95.90
33903;DHT22;20194;50.950;5.346;2023-11-22T01:53:03;7.80;96.00
33903;DHT22;20194;50.950;5.346;2023-11-22T01:55:29;7.70;96.20
33903;DHT22;20194;50.950;5.346;2023-11-22T01:57:56;7.70;96.70
33903;DHT22;20194;50.950;5.346;2023-11-22T02:00:23;7.80;96.70
33903;DHT22;20194;50.950;5.346;2023-11-22T02:02:51;7.50;97.30
33903;DHT22;20194;50.950;5.346;2023-11-22T02:05:16;7.50;97.50
33903;DHT22;20194;50.950;5.346;2023-11-22T02:07:43;7.30;97.40
33903;DHT22;20194;50.950;5.346;2023-11-22T02:10:09;7.20;98.60
33903;DHT22;20194;50.950;5.346;2023-11-22T02:12:35;7.30;99.00
33903;DHT22;20194;50.950;5.346;2023-11-22T02:15:01;7.30;98.70
33903;DHT22;20194;50.950;5.346;2023-11-22T02:17:29;7.40;99.00
33903;DHT22;20194;50.950;5.346;2023-11-22T02:19:54;7.40;98.50
33903;DHT22;20194;50.950;5.346;2023-11-22T02:22:20;7.50;98.00
33903;DHT22;20194;50.950;5.346;2023-11-22T02:24:47;7.50;97.90
33903;DHT22;20194;50.950;5.346;2023-11-22T02:27:12;7.50;97.50
33903;DHT22;20194;50.950;5.346;2023-11-22T02:29:38;7.60;97.90
33903;DHT22;20194;50.950;5.346;2023-11-22T02:32:05;7.60;97.40
33903;DHT22;20194;50.950;5.346;2023-11-22T02:34:31;7.60;97.60
33903;DHT22;20194;50.950;5.346;2023-11-22T02:36:57;7.60;97.40
33903;DHT22;20194;50.950;5.346;2023-11-22T02:39:29;7.80;97.60
33903;DHT22;20194;50.950;5.346;2023-11-22T02:42:00;7.60;96.00
33903;DHT22;20194;50.950;5.346;2023-11-22T02:44:26;7.60;97.80
33903;DHT22;20194;50.950;5.346;2023-11-22T02:46:52;7.50;97.00
33903;DHT22;20194;50.950;5.346;2023-11-22T02:49:18;7.40;97.70
33903;DHT22;20194;50.950;5.346;2023-11-22T02:51:45;7.50;97.50
33903;DHT22;20194;50.950;5.346;2023-11-22T02:54:11;7.40;96.70
33903;DHT22;20194;50.950;5.346;2023-11-22T02:56:37;7.30;97.60
33903;DHT22;20194;50.950;5.346;2023-11-22T02:59:03;7.30;97.70
33903;DHT22;20194;50.950;5.346;2023-11-22T03:01:28;7.20;97.60
33903;DHT22;20194;50.950;5.346;2023-11-22T03:03:54;7.10;97.90
33903;DHT22;20194;50.950;5.346;2023-11-22T03:06:20;7.10;98.40
33903;DHT22;20194;50.950;5.346;2023-11-22T03:08:46;7.20;98.40
33903;DHT22;20194;50.950;5.346;2023-11-22T03:11:12;7.30;98.20
33903;DHT22;20194;50.950;5.346;2023-11-22T03:13:38;7.10;98.40
33903;DHT22;20194;50.950;5.346;2023-11-22T03:16:04;7.20;98.50
33903;DHT22;20194;50.950;5.346;2023-11-22T03:18:30;7.20;98.50
33903;DHT22;20194;50.950;5.346;2023-11-22T03:20:56;7.30;98.20
33903;DHT22;20194;50.950;5.346;2023-11-22T03:23:23;7.40;97.70
33903;DHT22;20194;50.950;5.346;2023-11-22T03:25:48;7.60;97.20
33903;DHT22;20194;50.950;5.346;2023-11-22T03:28:14;7.20;97.20
33903;DHT22;20194;50.950;5.346;2023-11-22T03:30:40;7.20;97.80
33903;DHT22;20194;50.950;5.346;2023-11-22T03:33:06;7.00;97.70
33903;DHT22;20194;50.950;5.346;2023-11-22T03:35:31;6.70;98.60
33903;DHT22;20194;50.950;5.346;2023-11-22T03:37:57;6.70;99.20
33903;DHT22;20194;50.950;5.346;2023-11-22T03:40:23;6.80;99.20
33903;DHT22;20194;50.950;5.346;2023-11-22T03:42:48;7.00;98.90
33903;DHT22;20194;50.950;5.346;2023-11-22T03:45:14;7.10;98.20
33903;DHT22;20194;50.950;5.346;2023-11-22T03:47:40;7.10;98.60
33903;DHT22;20194;50.950;5.346;2023-11-22T03:50:06;7.20;98.10
33903;DHT22;20194;50.950;5.346;2023-11-22T03:52:32;7.20;97.60
33903;DHT22;20194;50.950;5.346;2023-11-22T03:54:58;7.10;97.90
33903;DHT22;20194;50.950;5.346;2023-11-22T03:57:24;7.10;98.20
33903;DHT22;20194;50.950;5.346;2023-11-22T03:59:49;7.10;98.40
33903;DHT22;20194;50.950;5.346;2023-11-22T04:02:15;7.00;97.90
33903;DHT22;20194;50.950;5.346;2023-11-22T04:04:41;7.00;98.30
33903;DHT22;20194;50.950;5.346;2023-11-22T04:07:07;7.10;97.90
33903;DHT22;20194;50.950;5.346;2023-11-22T04:09:33;7.20;97.00
33903;DHT22;20194;50.950;5.346;2023-11-22T04:11:59;7.10;97.20
33903;DHT22;20194;50.950;5.346;2023-11-22T04:14:25;7.20;97.50
33903;DHT22;20194;50.950;5.346;2023-11-22T04:16:52;7.40;97.00
33903;DHT22;20194;50.950;5.346;2023-11-22T04:19:18;7.60;96.40
33903;DHT22;20194;50.950;5.346;2023-11-22T04:21:44;7.30;96.30
33903;DHT22;20194;50.950;5.346;2023-11-22T04:24:09;7.20;96.80
33903;DHT22;20194;50.950;5.346;2023-11-22T04:26:38;7.20;97.00
33903;DHT22;20194;50.950;5.346;2023-11-22T04:29:04;7.10;97.10
33903;DHT22;20194;50.950;5.346;2023-11-22T04:31:30;6.80;97.30
33903;DHT22;20194;50.950;5.346;2023-11-22T04:33:55;6.50;98.30
33903;DHT22;20194;50.950;5.346;2023-11-22T04:36:23;6.60;99.10
33903;DHT22;20194;50.950;5.346;2023-11-22T04:38:49;6.70;99.00
33903;DHT22;20194;50.950;5.346;2023-11-22T04:41:15;6.80;98.80
33903;DHT22;20194;50.950;5.346;2023-11-22T04:43:43;6.70;98.60
33903;DHT22;20194;50.950;5.346;2023-11-22T04:46:10;6.90;98.90
33903;DHT22;20194;50.950;5.346;2023-11-22T04:48:36;7.10;98.50
33903;DHT22;20194;50.950;5.346;2023-11-22T04:51:04;7.10;97.80
33903;DHT22;20194;50.950;5.346;2023-11-22T04:53:30;7.20;97.70
33903;DHT22;20194;50.950;5.346;2023-11-22T04:55:57;7.20;97.40
33903;DHT22;20194;50.950;5.346;2023-11-22T04:58:24;7.30;97.50
33903;DHT22;20194;50.950;5.346;2023-11-22T05:00:50;7.30;97.70
33903;DHT22;20194;50.950;5.346;2023-11-22T05:03:15;7.50;97.20
33903;DHT22;20194;50.950;5.346;2023-11-22T05:05:41;7.50;96.50
33903;DHT22;20194;50.950;5.346;2023-11-22T05:08:07;7.50;96.10
33903;DHT22;20194;50.950;5.346;2023-11-22T05:10:32;7.40;96.20
33903;DHT22;20194;50.950;5.346;2023-11-22T05:12:58;7.60;96.20
33903;DHT22;20194;50.950;5.346;2023-11-22T05:15:26;7.60;95.60
33903;DHT22;20194;50.950;5.346;2023-11-22T05:17:52;7.50;95.70
33903;DHT22;20194;50.950;5.346;2023-11-22T05:20:18;7.60;95.90
33903;DHT22;20194;50.950;5.346;2023-11-22T05:22:44;7.30;95.20
33903;DHT22;20194;50.950;5.346;2023-11-22T05:25:10;7.20;97.00
33903;DHT22;20194;50.950;5.346;2023-11-22T05:27:36;7.40;97.00
33903;DHT22;20194;50.950;5.346;2023-11-22T05:30:03;7.50;96.20
33903;DHT22;20194;50.950;5.346;2023-11-22T05:32:30;7.40;96.20
33903;DHT22;20194;50.950;5.346;2023-11-22T05:34:56;7.20;95.80
33903;DHT22;20194;50.950;5.346;2023-11-22T05:37:22;6.90;96.30
33903;DHT22;20194;50.950;5.346;2023-11-22T05:39:48;6.70;97.40
33903;DHT22;20194;50.950;5.346;2023-11-22T05:42:14;6.50;97.90
33903;DHT22;20194;50.950;5.346;2023-11-22T05:44:39;6.70;98.50
33903;DHT22;20194;50.950;5.346;2023-11-22T05:47:05;6.80;98.10
33903;DHT22;20194;50.950;5.346;2023-11-22T05:49:31;7.00;98.00
33903;DHT22;20194;50.950;5.346;2023-11-22T05:51:56;7.00;97.10
33903;DHT22;20194;50.950;5.346;2023-11-22T05:54:22;7.10;96.50
33903;DHT22;20194;50.950;5.346;2023-11-22T05:56:48;6.90;96.40
33903;DHT22;20194;50.950;5.346;2023-11-22T05:59:15;6.90;96.80
33903;DHT22;20194;50.950;5.346;2023-11-22T06:01:41;7.00;96.30
33903;DHT22;20194;50.950;5.346;2023-11-22T06:04:07;7.10;96.30
33903;DHT22;20194;50.950;5.346;2023-11-22T06:06:35;7.10;95.50
33903;DHT22;20194;50.950;5.346;2023-11-22T06:09:01;7.20;95.70
33903;DHT22;20194;50.950;5.346;2023-11-22T06:11:27;7.20;94.70
33903;DHT22;20194;50.950;5.346;2023-11-22T06:13:52;7.20;94.90
33903;DHT22;20194;50.950;5.346;2023-11-22T06:16:18;7.30;94.50
33903;DHT22;20194;50.950;5.346;2023-11-22T06:18:44;7.30;93.70
33903;DHT22;20194;50.950;5.346;2023-11-22T06:21:10;7.30;94.10
33903;DHT22;20194;50.950;5.346;2023-11-22T06:23:36;7.00;94.90
33903;DHT22;20194;50.950;5.346;2023-11-22T06:26:02;7.10;95.20
33903;DHT22;20194;50.950;5.346;2023-11-22T06:28:28;7.20;95.00
33903;DHT22;20194;50.950;5.346;2023-11-22T06:30:54;7.20;95.10
33903;DHT22;20194;50.950;5.346;2023-11-22T06:33:20;7.30;94.80
33903;DHT22;20194;50.950;5.346;2023-11-22T06:35:46;7.40;95.00
33903;DHT22;20194;50.950;5.346;2023-11-22T06:38:11;7.30;93.40
33903;DHT22;20194;50.950;5.346;2023-11-22T06:40:37;7.30;93.20
33903;DHT22;20194;50.950;5.346;2023-11-22T06:43:03;7.10;93.40
33903;DHT22;20194;50.950;5.346;2023-11-22T06:45:32;7.00;92.80
33903;DHT22;20194;50.950;5.346;2023-11-22T06:47:58;6.90;94.10
33903;DHT22;20194;50.950;5.346;2023-11-22T06:50:24;7.10;94.70
33903;DHT22;20194;50.950;5.346;2023-11-22T06:52:50;7.30;94.20
33903;DHT22;20194;50.950;5.346;2023-11-22T06:55:16;7.40;93.20
33903;DHT22;20194;50.950;5.346;2023-11-22T06:57:41;7.40;92.20
33903;DHT22;20194;50.950;5.346;2023-11-22T07:00:07;7.40;93.20
33903;DHT22;20194;50.950;5.346;2023-11-22T07:02:35;7.40;94.00
33903;DHT22;20194;50.950;5.346;2023-11-22T07:05:01;7.50;93.30
33903;DHT22;20194;50.950;5.346;2023-11-22T07:07:28;7.50;93.20
33903;DHT22;20194;50.950;5.346;2023-11-22T07:09:55;7.50;92.80
33903;DHT22;20194;50.950;5.346;2023-11-22T07:12:24;7.50;92.90
33903;DHT22;20194;50.950;5.346;2023-11-22T07:14:50;7.40;92.90
33903;DHT22;20194;50.950;5.346;2023-11-22T07:17:16;7.30;92.80
33903;DHT22;20194;50.950;5.346;2023-11-22T07:19:43;7.40;92.80
33903;DHT22;20194;50.950;5.346;2023-11-22T07:22:15;7.40;92.30
33903;DHT22;20194;50.950;5.346;2023-11-22T07:24:45;7.40;92.60
33903;DHT22;20194;50.950;5.346;2023-11-22T07:27:14;7.50;92.60
33903;DHT22;20194;50.950;5.346;2023-11-22T07:29:41;7.20;91.90
33903;DHT22;20194;50.950;5.346;2023-11-22T07:32:07;6.80;93.60
33903;DHT22;20194;50.950;5.346;2023-11-22T07:34:34;6.70;94.30
33903;DHT22;20194;50.950;5.346;2023-11-22T07:37:00;6.90;95.20
33903;DHT22;20194;50.950;5.346;2023-11-22T07:39:26;6.90;94.10
33903;DHT22;20194;50.950;5.346;2023-11-22T07:41:56;6.80;94.00
33903;DHT22;20194;50.950;5.346;2023-11-22T07:44:24;6.60;94.90
33903;DHT22;20194;50.950;5.346;2023-11-22T07:46:50;6.60;95.70
33903;DHT22;20194;50.950;5.346;2023-11-22T07:49:18;6.60;96.20
33903;DHT22;20194;50.950;5.346;2023-11-22T07:51:44;6.60;96.40
33903;DHT22;20194;50.950;5.346;2023-11-22T07:54:12;6.50;95.60
33903;DHT22;20194;50.950;5.346;2023-11-22T07:56:42;6.70;96.00
33903;DHT22;20194;50.950;5.346;2023-11-22T07:59:10;6.80;95.30
33903;DHT22;20194;50.950;5.346;2023-11-22T08:01:36;6.90;94.60
33903;DHT22;20194;50.950;5.346;2023-11-22T08:04:03;6.80;94.40
33903;DHT22;20194;50.950;5.346;2023-11-22T08:06:28;6.90;94.70
33903;DHT22;20194;50.950;5.346;2023-11-22T08:08:54;6.80;94.90
33903;DHT22;20194;50.950;5.346;2023-11-22T08:11:20;6.60;95.00
33903;DHT22;20194;50.950;5.346;2023-11-22T08:13:46;6.80;95.50
33903;DHT22;20194;50.950;5.346;2023-11-22T08:16:13;6.90;95.10
33903;DHT22;20194;50.950;5.346;2023-11-22T08:18:39;6.90;94.70
33903;DHT22;20194;50.950;5.346;2023-11-22T08:21:06;7.00;93.70
33903;DHT22;20194;50.950;5.346;2023-11-22T08:23:31;7.10;93.50
33903;DHT22;20194;50.950;5.346;2023-11-22T08:26:01;7.00;93.30
33903;DHT22;20194;50.950;5.346;2023-11-22T08:28:26;6.80;94.00
33903;DHT22;20194;50.950;5.346;2023-11-22T08:30:52;6.90;95.10
33903;DHT22;20194;50.950;5.346;2023-11-22T08:33:19;7.10;95.00
33903;DHT22;20194;50.950;5.346;2023-11-22T08:35:44;7.20;94.10
33903;DHT22;20194;50.950;5.346;2023-11-22T08:38:18;7.30;93.50
33903;DHT22;20194;50.950;5.346;2023-11-22T08:40:44;7.10;92.80
33903;DHT22;20194;50.950;5.346;2023-11-22T08:43:11;7.10;93.40
33903;DHT22;20194;50.950;5.346;2023-11-22T08:45:36;7.20;92.70
33903;DHT22;20194;50.950;5.346;2023-11-22T08:48:02;7.30;92.80
33903;DHT22;20194;50.950;5.346;2023-11-22T08:50:28;7.20;92.20
33903;DHT22;20194;50.950;5.346;2023-11-22T08:52:54;7.10;92.70
33903;DHT22;20194;50.950;5.346;2023-11-22T08:55:20;7.20;92.60
33903;DHT22;20194;50.950;5.346;2023-11-22T08:57:48;7.40;91.90
33903;DHT22;20194;50.950;5.346;2023-11-22T09:00:17;7.60;91.50
33903;DHT22;20194;50.950;5.346;2023-11-22T09:02:48;7.60;90.90
33903;DHT22;20194;50.950;5.346;2023-11-22T09:05:14;7.20;91.80
33903;DHT22;20194;50.950;5.346;2023-11-22T09:07:42;6.80;93.20
33903;DHT22;20194;50.950;5.346;2023-11-22T09:10:10;6.80;93.10
33903;DHT22;20194;50.950;5.346;2023-11-22T09:12:39;6.90;94.00
33903;DHT22;20194;50.950;5.346;2023-11-22T09:15:09;7.10;93.50
33903;DHT22;20194;50.950;5.346;2023-11-22T09:17:37;6.90;93.20
33903;DHT22;20194;50.950;5.346;2023-11-22T09:20:11;6.70;94.00
33903;DHT22;20194;50.950;5.346;2023-11-22T09:22:51;6.90;94.50
33903;DHT22;20194;50.950;5.346;2023-11-22T09:25:19;6.90;94.20
33903;DHT22;20194;50.950;5.346;2023-11-22T09:27:45;6.70;93.90
33903;DHT22;20194;50.950;5.346;2023-11-22T09:30:13;6.70;94.50
33903;DHT22;20194;50.950;5.346;2023-11-22T09:32:45;6.70;94.40
33903;DHT22;20194;50.950;5.346;2023-11-22T09:35:15;7.00;94.30
33903;DHT22;20194;50.950;5.346;2023-11-22T09:37:41;6.90;93.40
33903;DHT22;20194;50.950;5.346;2023-11-22T09:40:08;7.00;93.20
33903;DHT22;20194;50.950;5.346;2023-11-22T09:42:34;7.30;93.00
33903;DHT22;20194;50.950;5.346;2023-11-22T09:45:00;7.50;92.70
33903;DHT22;20194;50.950;5.346;2023-11-22T09:47:28;7.30;92.30
33903;DHT22;20194;50.950;5.346;2023-11-22T09:49:56;7.10;91.70
33903;DHT22;20194;50.950;5.346;2023-11-22T09:52:25;7.30;93.20
33903;DHT22;20194;50.950;5.346;2023-11-22T09:54:54;7.00;92.30
33903;DHT22;20194;50.950;5.346;2023-11-22T09:57:20;7.10;94.00
33903;DHT22;20194;50.950;5.346;2023-11-22T09:59:50;7.30;93.40
33903;DHT22;20194;50.950;5.346;2023-11-22T10:02:18;7.50;92.90
33903;DHT22;20194;50.950;5.346;2023-11-22T10:04:45;7.80;92.40
33903;DHT22;20194;50.950;5.346;2023-11-22T10:07:11;7.90;91.30
33903;DHT22;20194;50.950;5.346;2023-11-22T10:09:38;8.10;90.60
33903;DHT22;20194;50.950;5.346;2023-11-22T10:12:07;8.30;90.00
33903;DHT22;20194;50.950;5.346;2023-11-22T10:14:33;8.40;87.40
33903;DHT22;20194;50.950;5.346;2023-11-22T10:17:00;8.50;87.40
33903;DHT22;20194;50.950;5.346;2023-11-22T10:19:27;8.50;86.70
33903;DHT22;20194;50.950;5.346;2023-11-22T10:22:08;8.50;86.20
33903;DHT22;20194;50.950;5.346;2023-11-22T10:24:35;8.50;85.10
33903;DHT22;20194;50.950;5.346;2023-11-22T10:27:02;8.50;85.60
33903;DHT22;20194;50.950;5.346;2023-11-22T10:29:28;7.80;88.60
33903;DHT22;20194;50.950;5.346;2023-11-22T10:31:54;7.40;91.40
33903;DHT22;20194;50.950;5.346;2023-11-22T10:34:24;7.00;92.40
33903;DHT22;20194;50.950;5.346;2023-11-22T10:36:50;6.90;92.70
33903;DHT22;20194;50.950;5.346;2023-11-22T10:39:22;6.90;94.50
33903;DHT22;20194;50.950;5.346;2023-11-22T10:41:48;7.30;93.80
33903;DHT22;20194;50.950;5.346;2023-11-22T10:44:19;7.70;92.70
33903;DHT22;20194;50.950;5.346;2023-11-22T10:46:47;7.90;90.60
33903;DHT22;20194;50.950;5.346;2023-11-22T10:49:13;7.70;88.30
33903;DHT22;20194;50.950;5.346;2023-11-22T10:51:40;7.70;90.50
33903;DHT22;20194;50.950;5.346;2023-11-22T10:54:10;7.70;91.20
33903;DHT22;20194;50.950;5.346;2023-11-22T10:56:39;7.90;90.70
33903;DHT22;20194;50.950;5.346;2023-11-22T10:59:10;8.20;90.10
33903;DHT22;20194;50.950;5.346;2023-11-22T11:01:40;8.50;86.70
33903;DHT22;20194;50.950;5.346;2023-11-22T11:04:38;8.50;85.10
33903;DHT22;20194;50.950;5.346;2023-11-22T11:07:03;8.30;81.50
33903;DHT22;20194;50.950;5.346;2023-11-22T11:09:31;7.90;86.60
33903;DHT22;20194;50.950;5.346;2023-11-22T11:11:58;7.40;88.90
33903;DHT22;20194;50.950;5.346;2023-11-22T11:14:26;7.50;91.40
33903;DHT22;20194;50.950;5.346;2023-11-22T11:16:52;7.60;91.20
33903;DHT22;20194;50.950;5.346;2023-11-22T11:19:20;7.70;91.00
33903;DHT22;20194;50.950;5.346;2023-11-22T11:21:51;7.80;91.70
33903;DHT22;20194;50.950;5.346;2023-11-22T11:24:17;7.70;91.10
33903;DHT22;20194;50.950;5.346;2023-11-22T11:26:50;7.70;90.60
33903;DHT22;20194;50.950;5.346;2023-11-22T11:29:36;8.00;89.50
33903;DHT22;20194;50.950;5.346;2023-11-22T11:32:10;7.80;89.00
33903;DHT22;20194;50.950;5.346;2023-11-22T11:34:48;7.60;88.20
33903;DHT22;20194;50.950;5.346;2023-11-22T11:37:20;7.40;85.20
33903;DHT22;20194;50.950;5.346;2023-11-22T11:39:46;7.70;87.80
33903;DHT22;20194;50.950;5.346;2023-11-22T11:42:12;8.00;87.90
33903;DHT22;20194;50.950;5.346;2023-11-22T11:44:51;8.00;82.00
33903;DHT22;20194;50.950;5.346;2023-11-22T11:47:26;8.00;81.00
33903;DHT22;20194;50.950;5.346;2023-11-22T11:49:52;8.10;79.80
33903;DHT22;20194;50.950;5.346;2023-11-22T11:52:17;8.00;79.50
33903;DHT22;20194;50.950;5.346;2023-11-22T11:54:44;7.80;81.40
33903;DHT22;20194;50.950;5.346;2023-11-22T11:57:10;8.20;80.40
33903;DHT22;20194;50.950;5.346;2023-11-22T11:59:36;8.10;80.30
33903;DHT22;20194;50.950;5.346;2023-11-22T12:02:02;8.20;79.60
33903;DHT22;20194;50.950;5.346;2023-11-22T12:04:31;8.10;77.10
33903;DHT22;20194;50.950;5.346;2023-11-22T12:06:58;8.00;82.00
33903;DHT22;20194;50.950;5.346;2023-11-22T12:09:27;8.00;80.90
33903;DHT22;20194;50.950;5.346;2023-11-22T12:11:54;8.10;80.60
33903;DHT22;20194;50.950;5.346;2023-11-22T12:14:21;8.10;83.00
33903;DHT22;20194;50.950;5.346;2023-11-22T12:16:47;7.90;84.00
33903;DHT22;20194;50.950;5.346;2023-11-22T12:19:27;7.70;82.30
33903;DHT22;20194;50.950;5.346;2023-11-22T12:21:53;7.80;85.80
33903;DHT22;20194;50.950;5.346;2023-11-22T12:24:19;7.90;84.30
33903;DHT22;20194;50.950;5.346;2023-11-22T12:26:46;8.00;83.50
33903;DHT22;20194;50.950;5.346;2023-11-22T12:29:14;7.70;85.30
33903;DHT22;20194;50.950;5.346;2023-11-22T12:31:49;7.80;85.10
33903;DHT22;20194;50.950;5.346;2023-11-22T12:34:20;8.10;87.20
33903;DHT22;20194;50.950;5.346;2023-11-22T12:36:46;8.20;85.80
33903;DHT22;20194;50.950;5.346;2023-11-22T12:39:13;8.20;84.50
33903;DHT22;20194;50.950;5.346;2023-11-22T12:41:50;8.20;84.20
33903;DHT22;20194;50.950;5.346;2023-11-22T12:44:17;8.30;85.10
33903;DHT22;20194;50.950;5.346;2023-11-22T12:46:53;8.40;84.00
33903;DHT22;20194;50.950;5.346;2023-11-22T12:49:27;8.40;83.50
33903;DHT22;20194;50.950;5.346;2023-11-22T12:51:54;7.90;81.50
33903;DHT22;20194;50.950;5.346;2023-11-22T12:54:20;7.70;86.00
33903;DHT22;20194;50.950;5.346;2023-11-22T12:56:53;7.80;87.30
33903;DHT22;20194;50.950;5.346;2023-11-22T12:59:25;7.90;85.00
33903;DHT22;20194;50.950;5.346;2023-11-22T13:01:53;7.90;86.60
33903;DHT22;20194;50.950;5.346;2023-11-22T13:04:20;7.80;83.20
33903;DHT22;20194;50.950;5.346;2023-11-22T13:06:45;7.80;83.40
33903;DHT22;20194;50.950;5.346;2023-11-22T13:09:11;7.70;86.30
33903;DHT22;20194;50.950;5.346;2023-11-22T13:11:41;7.70;88.80
33903;DHT22;20194;50.950;5.346;2023-11-22T13:14:08;7.80;86.90
33903;DHT22;20194;50.950;5.346;2023-11-22T13:16:34;7.80;86.40
33903;DHT22;20194;50.950;5.346;2023-11-22T13:19:00;7.90;86.30
33903;DHT22;20194;50.950;5.346;2023-11-22T13:21:26;8.10;86.60
33903;DHT22;20194;50.950;5.346;2023-11-22T13:23:52;8.20;82.40
33903;DHT22;20194;50.950;5.346;2023-11-22T13:26:18;8.20;84.80
33903;DHT22;20194;50.950;5.346;2023-11-22T13:28:44;8.20;83.70
33903;DHT22;20194;50.950;5.346;2023-11-22T13:31:10;8.10;84.80
33903;DHT22;20194;50.950;5.346;2023-11-22T13:33:38;8.10;83.90
33903;DHT22;20194;50.950;5.346;2023-11-22T13:36:04;8.00;85.30
33903;DHT22;20194;50.950;5.346;2023-11-22T13:38:30;7.90;85.00
33903;DHT22;20194;50.950;5.346;2023-11-22T13:40:56;7.80;86.10
33903;DHT22;20194;50.950;5.346;2023-11-22T13:43:22;7.80;88.70
33903;DHT22;20194;50.950;5.346;2023-11-22T13:45:48;8.00;87.30
33903;DHT22;20194;50.950;5.346;2023-11-22T13:48:15;8.00;86.10
33903;DHT22;20194;50.950;5.346;2023-11-22T13:50:41;8.10;84.80
33903;DHT22;20194;50.950;5.346;2023-11-22T13:53:08;7.80;85.30
33903;DHT22;20194;50.950;5.346;2023-11-22T13:55:36;7.90;86.80
33903;DHT22;20194;50.950;5.346;2023-11-22T13:58:02;7.90;84.30
33903;DHT22;20194;50.950;5.346;2023-11-22T14:00:31;8.00;83.70
33903;DHT22;20194;50.950;5.346;2023-11-22T14:03:02;8.00;82.40
33903;DHT22;20194;50.950;5.346;2023-11-22T14:05:33;7.70;83.00
33903;DHT22;20194;50.950;5.346;2023-11-22T14:07:59;7.60;84.20
33903;DHT22;20194;50.950;5.346;2023-11-22T14:10:26;7.60;87.90
33903;DHT22;20194;50.950;5.346;2023-11-22T14:12:52;7.80;86.00
33903;DHT22;20194;50.950;5.346;2023-11-22T14:15:18;7.70;86.00
33903;DHT22;20194;50.950;5.346;2023-11-22T14:17:45;7.70;86.50
33903;DHT22;20194;50.950;5.346;2023-11-22T14:20:15;7.80;86.10
33903;DHT22;20194;50.950;5.346;2023-11-22T14:22:41;7.80;86.10
33903;DHT22;20194;50.950;5.346;2023-11-22T14:25:08;7.80;86.30
33903;DHT22;20194;50.950;5.346;2023-11-22T14:27:46;7.70;84.70
33903;DHT22;20194;50.950;5.346;2023-11-22T14:30:12;7.70;85.40
33903;DHT22;20194;50.950;5.346;2023-11-22T14:32:42;7.70;85.80
33903;DHT22;20194;50.950;5.346;2023-11-22T14:35:08;7.70;86.20
33903;DHT22;20194;50.950;5.346;2023-11-22T14:37:35;7.60;86.60
33903;DHT22;20194;50.950;5.346;2023-11-22T14:40:01;7.50;86.80
33903;DHT22;20194;50.950;5.346;2023-11-22T14:42:30;7.60;88.40
33903;DHT22;20194;50.950;5.346;2023-11-22T14:44:57;7.70;87.80
33903;DHT22;20194;50.950;5.346;2023-11-22T14:47:22;7.80;87.60
33903;DHT22;20194;50.950;5.346;2023-11-22T14:49:53;7.60;88.00
33903;DHT22;20194;50.950;5.346;2023-11-22T14:52:20;7.60;89.60
33903;DHT22;20194;50.950;5.346;2023-11-22T14:54:46;7.70;89.40
33903;DHT22;20194;50.950;5.346;2023-11-22T14:57:13;7.70;88.10
33903;DHT22;20194;50.950;5.346;2023-11-22T14:59:39;7.60;88.80
33903;DHT22;20194;50.950;5.346;2023-11-22T15:02:05;7.60;90.00
33903;DHT22;20194;50.950;5.346;2023-11-22T15:04:34;7.50;90.40
33903;DHT22;20194;50.950;5.346;2023-11-22T15:07:02;7.60;90.60
33903;DHT22;20194;50.950;5.346;2023-11-22T15:09:28;7.60;90.70
33903;DHT22;20194;50.950;5.346;2023-11-22T15:11:54;7.50;90.90
33903;DHT22;20194;50.950;5.346;2023-11-22T15:14:20;7.50;91.50
33903;DHT22;20194;50.950;5.346;2023-11-22T15:16:47;7.70;91.20
33903;DHT22;20194;50.950;5.346;2023-11-22T15:19:13;7.70;91.00
33903;DHT22;20194;50.950;5.346;2023-11-22T15:21:39;7.70;90.70
33903;DHT22;20194;50.950;5.346;2023-11-22T15:24:06;7.70;90.40
33903;DHT22;20194;50.950;5.346;2023-11-22T15:26:32;7.70;90.40
33903;DHT22;20194;50.950;5.346;2023-11-22T15:28:58;7.60;91.10
33903;DHT22;20194;50.950;5.346;2023-11-22T15:31:24;7.60;91.20
33903;DHT22;20194;50.950;5.346;2023-11-22T15:33:50;7.70;91.20
33903;DHT22;20194;50.950;5.346;2023-11-22T15:36:15;7.70;90.30
33903;DHT22;20194;50.950;5.346;2023-11-22T15:38:41;7.80;90.40
33903;DHT22;20194;50.950;5.346;2023-11-22T15:41:07;7.60;90.40
33903;DHT22;20194;50.950;5.346;2023-11-22T15:43:36;7.60;91.10